San Patricio, Texas
Current Conditions -  °F | °C
As of 6:50 PM on Friday 24 Oct 2014 (Local Time) from KRBO Reporting Station
Heavy Rain Heavy Rain  
Wind Chill: 80°   Ceiling: Unl
Heat Index: 81°   Visibility: 5mi
Dew Point: 60°   Wind: 8mph
Humidity: 51%   Direction: 110°ESE
Pressure: 30.08"   Gusts: NA
Location:  28.0654°N, 97.7489°W
Report Text: KRBO 242350Z AUTO 11007KT 5SM +RA CLR 27/16 A3008 RMK AO2 T02650157 10298 20265
Loading
Personal Weather Stations






























Interactive Weather Map
Tropical Storm Tracking
New forecast layout! Learn more

10-Day Weather Forecast

Advertisements
Track Severe Weather on mobile